createdAt,value
2019-02-02T00:01:14.318Z,60.85
2019-02-02T00:03:41.091Z,61.13
2019-02-02T00:06:08.298Z,61.09
2019-02-02T00:08:35.150Z,61.22
2019-02-02T00:11:01.986Z,61.17
2019-02-02T00:13:29.124Z,60.96
2019-02-02T00:15:55.750Z,60.61
2019-02-02T00:18:22.435Z,60.52
2019-02-02T00:20:49.544Z,60.59
2019-02-02T00:23:16.843Z,60.48
2019-02-02T00:25:43.434Z,60.16
2019-02-02T00:28:10.430Z,60.47
2019-02-02T00:30:37.078Z,60.68
2019-02-02T00:33:03.709Z,60.51
2019-02-02T00:35:30.759Z,60.58
2019-02-02T00:37:57.408Z,61.25
2019-02-02T00:40:24.097Z,61.38
2019-02-02T00:42:50.849Z,61.33
2019-02-02T00:45:17.803Z,61.17
2019-02-02T00:47:44.631Z,61.06
2019-02-02T00:50:11.272Z,61.09
2019-02-02T00:52:38.142Z,61.23
2019-02-02T00:55:05.071Z,61.06
2019-02-02T00:57:32.138Z,61.43
2019-02-02T00:59:59.405Z,61.07
2019-02-02T01:02:26.770Z,61.10
2019-02-02T01:04:53.499Z,60.91
2019-02-02T01:07:20.200Z,61.54
2019-02-02T01:09:47.002Z,61.79
2019-02-02T01:12:13.757Z,61.47
2019-02-02T01:14:41.740Z,61.43
2019-02-02T01:17:08.667Z,61.56
2019-02-02T01:19:35.327Z,61.16
2019-02-02T01:22:02.103Z,61.11
2019-02-02T01:24:28.763Z,61.06
2019-02-02T01:26:55.624Z,61.03
2019-02-02T01:29:22.743Z,60.96
2019-02-02T01:31:49.575Z,61.22
2019-02-02T01:34:16.821Z,61.26
2019-02-02T01:36:43.717Z,60.91
2019-02-02T01:39:12.166Z,61.45
2019-02-02T01:41:39.903Z,61.63
2019-02-02T01:44:06.882Z,62.22
2019-02-02T01:46:33.531Z,62.82
2019-02-02T01:49:00.306Z,62.50
2019-02-02T01:51:27.297Z,62.47
2019-02-02T01:53:54.291Z,62.35
2019-02-02T01:56:20.954Z,62.04
2019-02-02T01:58:47.915Z,61.76
2019-02-02T02:01:14.748Z,61.76
2019-02-02T02:03:42.723Z,61.86
2019-02-02T02:06:09.465Z,61.85
2019-02-02T02:08:36.130Z,61.71
2019-02-02T02:11:02.765Z,61.54
2019-02-02T02:13:29.487Z,61.88
2019-02-02T02:15:56.491Z,61.58
2019-02-02T02:18:23.201Z,61.42
2019-02-02T02:20:49.802Z,61.30
2019-02-02T02:23:16.433Z,61.27
2019-02-02T02:25:44.384Z,61.22
2019-02-02T02:28:11.138Z,61.06
2019-02-02T02:30:37.745Z,61.22
2019-02-02T02:33:04.445Z,61.33
2019-02-02T02:35:31.420Z,61.57
2019-02-02T02:37:58.772Z,61.57
2019-02-02T02:48:34.378Z,61.96
2019-02-02T02:51:01.912Z,62.20
2019-02-02T02:53:29.531Z,61.93
2019-02-02T02:55:56.462Z,61.80
2019-02-02T02:58:23.388Z,62.21
2019-02-02T03:00:51.948Z,62.17
2019-02-02T03:03:20.099Z,61.83
2019-02-02T03:39:04.168Z,62.53
2019-02-02T03:41:31.744Z,62.69
2019-02-02T03:43:59.471Z,63.26
2019-02-02T03:46:27.145Z,63.36
2019-02-02T03:48:53.851Z,62.93
2019-02-02T03:51:21.723Z,62.89
2019-02-02T03:53:49.333Z,63.35
2019-02-02T03:56:17.531Z,63.22
2019-02-02T03:58:46.252Z,62.88
2019-02-02T04:01:12.969Z,62.46
2019-02-02T04:03:41.085Z,62.57
2019-02-02T04:06:08.582Z,62.31
2019-02-02T04:08:36.105Z,62.26
2019-02-02T04:11:03.605Z,62.22
2019-02-02T04:13:31.047Z,63.06
2019-02-02T04:15:59.167Z,63.41
2019-02-02T04:18:26.867Z,63.68
2019-02-02T04:20:53.651Z,63.85
2019-02-02T04:23:21.279Z,63.85
2019-02-02T04:25:48.159Z,63.27
2019-02-02T04:28:16.516Z,63.05
2019-02-02T04:30:43.242Z,62.65
2019-02-02T04:33:10.318Z,62.36
2019-02-02T04:35:37.277Z,62.56
2019-02-02T04:38:03.888Z,62.77
2019-02-02T04:40:33.048Z,63.07
2019-02-02T04:43:01.772Z,62.63
2019-02-02T04:45:28.847Z,62.64
2019-02-02T04:47:55.802Z,62.65
2019-02-02T04:50:22.479Z,62.60
2019-02-02T04:52:49.480Z,62.52
2019-02-02T04:55:23.256Z,62.40
2019-02-02T04:57:52.266Z,62.11
2019-02-02T05:00:18.903Z,62.36
2019-02-02T05:02:50.706Z,62.70
2019-02-02T05:05:17.295Z,62.41
2019-02-02T05:07:46.366Z,62.07
2019-02-02T05:10:13.029Z,62.16
2019-02-02T05:12:39.910Z,62.37
2019-02-02T05:15:08.800Z,62.90
2019-02-02T05:17:36.553Z,62.73
2019-02-02T05:22:51.075Z,64.32
2019-02-02T05:25:18.900Z,63.93
2019-02-02T05:28:02.895Z,62.91
2019-02-02T05:30:30.619Z,63.04
2019-02-02T05:32:59.557Z,63.30
2019-02-02T05:35:30.792Z,62.37
2019-02-02T05:37:58.781Z,62.98
2019-02-02T05:40:28.847Z,63.26
2019-02-02T05:43:00.660Z,63.40
2019-02-02T05:45:27.636Z,63.81
2019-02-02T05:47:57.188Z,63.98
2019-02-02T05:50:24.941Z,63.76
2019-02-02T05:52:52.693Z,63.36
2019-02-02T05:55:22.366Z,63.32
2019-02-02T05:57:52.014Z,63.67
2019-02-02T06:00:18.937Z,64.70
2019-02-02T06:02:45.653Z,65.07
2019-02-02T06:08:00.215Z,65.09
2019-02-02T06:10:29.884Z,64.47
2019-02-02T06:13:02.527Z,64.21
2019-02-02T06:15:33.588Z,65.11
2019-02-02T06:18:02.965Z,64.56
2019-02-02T06:23:19.179Z,64.36
2019-02-02T06:25:52.627Z,63.92
2019-02-02T06:28:20.379Z,64.25
2019-02-02T06:30:49.553Z,63.97
2019-02-02T06:33:30.386Z,63.52
2019-02-02T06:35:45.613Z,63.21
2019-02-02T06:38:12.572Z,62.97
2019-02-02T06:40:43.022Z,62.72
2019-02-02T06:43:11.742Z,62.55
2019-02-02T06:45:39.054Z,62.49
2019-02-02T06:48:09.721Z,61.93
2019-02-02T06:50:38.083Z,61.95
2019-02-02T06:53:13.645Z,62.88
2019-02-02T06:55:41.905Z,63.22
2019-02-02T06:58:09.639Z,62.97
2019-02-02T07:00:37.096Z,63.69
2019-02-02T07:03:03.743Z,63.48
2019-02-02T07:05:33.629Z,63.60
2019-02-02T07:07:59.131Z,63.53
2019-02-02T07:10:26.102Z,63.14
2019-02-02T07:12:52.712Z,63.09
2019-02-02T07:15:19.770Z,62.12
2019-02-02T07:17:46.678Z,62.50
2019-02-02T07:20:13.333Z,63.31
2019-02-02T07:22:40.274Z,63.83
2019-02-02T07:25:06.932Z,63.50
2019-02-02T07:27:33.827Z,63.47
2019-02-02T07:30:00.564Z,63.83
2019-02-02T07:32:27.899Z,63.52
2019-02-02T07:34:54.557Z,63.54
2019-02-02T07:37:21.263Z,63.86
2019-02-02T07:39:49.496Z,62.88
2019-02-02T07:42:16.285Z,63.13
2019-02-02T07:44:43.448Z,63.41
2019-02-02T07:47:10.309Z,63.21
2019-02-02T07:49:37.571Z,63.49
2019-02-02T07:52:04.577Z,62.92
2019-02-02T07:54:33.179Z,63.75
2019-02-02T07:57:00.148Z,63.24
2019-02-02T08:01:58.635Z,63.04
2019-02-02T08:04:26.470Z,63.32
2019-02-02T08:06:54.863Z,62.75
2019-02-02T08:09:22.082Z,62.28
2019-02-02T08:11:49.899Z,61.86
2019-02-02T08:14:16.836Z,62.08
2019-02-02T08:16:43.956Z,61.83
2019-02-02T08:19:10.742Z,62.05
2019-02-02T08:21:37.376Z,62.81
2019-02-02T08:24:04.667Z,62.90
2019-02-02T08:26:31.388Z,62.91
2019-02-02T08:28:58.747Z,62.88
2019-02-02T08:31:25.888Z,62.69
2019-02-02T08:33:52.925Z,62.83
2019-02-02T08:36:20.028Z,62.59
2019-02-02T08:38:47.201Z,62.84
2019-02-02T08:41:15.222Z,63.00
2019-02-02T08:43:41.944Z,62.93
2019-02-02T08:46:11.085Z,61.78
2019-02-02T08:48:43.493Z,62.05
2019-02-02T08:51:10.243Z,61.92
2019-02-02T08:53:36.961Z,62.15
2019-02-02T08:56:03.913Z,62.36
2019-02-02T08:58:30.867Z,61.68
2019-02-02T09:01:04.100Z,61.90
2019-02-02T09:03:28.960Z,62.49
2019-02-02T09:05:59.341Z,62.83
2019-02-02T09:08:28.651Z,62.54
2019-02-02T09:11:00.504Z,62.32
2019-02-02T09:13:27.405Z,62.35
2019-02-02T09:15:56.515Z,61.51
2019-02-02T09:18:23.510Z,61.58
2019-02-02T09:20:50.880Z,61.73
2019-02-02T09:23:18.674Z,61.67
2019-02-02T09:25:45.627Z,61.76
2019-02-02T09:28:13.262Z,61.90
2019-02-02T09:30:41.585Z,62.19
2019-02-02T09:33:11.946Z,62.20
2019-02-02T09:35:41.289Z,61.78
2019-02-02T09:38:16.682Z,61.91
2019-02-02T09:40:40.333Z,61.75
2019-02-02T09:43:09.986Z,61.55
2019-02-02T09:45:39.470Z,61.85
2019-02-02T09:48:11.803Z,61.65
2019-02-02T09:50:38.960Z,61.21
2019-02-02T09:53:08.982Z,61.46
2019-02-02T09:58:22.042Z,60.91
2019-02-02T10:00:49.892Z,61.82
2019-02-02T10:03:16.551Z,61.97
2019-02-02T10:05:46.974Z,61.64
2019-02-02T10:08:14.877Z,61.71
2019-02-02T10:10:43.997Z,61.44
2019-02-02T10:13:11.875Z,61.46
2019-02-02T10:15:40.025Z,61.68
2019-02-02T10:18:15.047Z,62.15
2019-02-02T10:20:49.503Z,61.72
2019-02-02T10:23:16.639Z,61.17
2019-02-02T10:25:48.980Z,60.77
2019-02-02T10:28:19.596Z,59.90
2019-02-02T10:30:49.379Z,60.00
2019-02-02T10:33:17.124Z,59.64
2019-02-02T10:35:45.215Z,60.22
2019-02-02T10:38:19.972Z,59.68
2019-02-02T10:40:46.720Z,60.66
2019-02-02T10:43:13.442Z,60.29
2019-02-02T10:45:42.963Z,59.92
2019-02-02T10:48:09.637Z,59.94
2019-02-02T10:50:39.398Z,59.56
2019-02-02T10:53:06.162Z,58.96
2019-02-02T10:55:36.914Z,58.52
2019-02-02T10:58:03.547Z,58.75
2019-02-02T11:00:31.930Z,58.26
2019-02-02T11:02:58.875Z,58.13
2019-02-02T11:05:25.882Z,58.12
2019-02-02T11:07:54.593Z,57.99
2019-02-02T11:10:21.621Z,57.43
2019-02-02T11:12:48.594Z,57.63
2019-02-02T11:15:15.357Z,58.02
2019-02-02T11:17:42.715Z,57.53
2019-02-02T11:20:09.570Z,57.39
2019-02-02T11:22:36.434Z,57.09
2019-02-02T11:25:03.192Z,57.47
2019-02-02T11:27:30.711Z,56.94
2019-02-02T11:29:57.887Z,56.19
2019-02-02T11:32:24.545Z,56.66
2019-02-02T11:34:51.360Z,56.93
2019-02-02T11:37:18.035Z,56.06
2019-02-02T11:39:44.670Z,56.42
2019-02-02T11:42:12.286Z,56.10
2019-02-02T11:44:38.985Z,55.75
2019-02-02T11:47:05.673Z,55.69
2019-02-02T11:49:32.587Z,56.26
2019-02-02T11:52:01.433Z,56.70
2019-02-02T11:54:28.120Z,56.82
2019-02-02T11:56:54.800Z,56.75
2019-02-02T11:59:21.908Z,58.17
2019-02-02T12:01:49.094Z,58.27
2019-02-02T12:04:16.090Z,57.50
2019-02-02T12:06:43.197Z,56.84
2019-02-02T12:09:09.914Z,56.67
2019-02-02T12:11:36.885Z,56.33
2019-02-02T12:14:03.891Z,56.54
2019-02-02T12:16:31.368Z,55.70
2019-02-02T12:18:58.090Z,55.08
2019-02-02T12:21:24.935Z,52.94
2019-02-02T12:23:52.055Z,53.58
2019-02-02T12:26:19.283Z,52.13
2019-02-02T12:28:46.187Z,51.94
2019-02-02T12:31:13.125Z,50.62
2019-02-02T12:33:40.098Z,50.99
2019-02-02T12:36:07.359Z,49.39
2019-02-02T12:41:05.215Z,49.10
2019-02-02T12:43:32.033Z,48.30
2019-02-02T12:46:00.950Z,48.93
2019-02-02T12:48:27.943Z,50.30
2019-02-02T12:50:57.378Z,48.63
2019-02-02T12:53:26.499Z,49.17
2019-02-02T12:55:53.806Z,48.32
2019-02-02T12:58:23.017Z,48.55
2019-02-02T13:00:53.590Z,47.65
2019-02-02T13:03:20.249Z,47.94
2019-02-02T13:05:47.182Z,47.57
2019-02-02T13:08:14.153Z,48.72
2019-02-02T13:10:41.123Z,48.72
2019-02-02T13:13:08.116Z,48.53
2019-02-02T13:15:35.195Z,48.54
2019-02-02T13:18:02.166Z,48.81
2019-02-02T13:20:28.923Z,49.04
2019-02-02T13:22:58.064Z,49.63
2019-02-02T13:25:24.815Z,48.57
2019-02-02T13:27:51.877Z,48.45
2019-02-02T13:30:18.474Z,48.41
2019-02-02T13:32:49.976Z,47.30
2019-02-02T13:35:14.099Z,46.36
2019-02-02T13:37:41.285Z,46.80
2019-02-02T13:40:11.965Z,46.33
2019-02-02T13:42:40.906Z,46.00
2019-02-02T13:45:10.815Z,46.20
2019-02-02T13:47:41.697Z,46.02
2019-02-02T13:50:09.899Z,45.80
2019-02-02T13:52:37.830Z,46.15
2019-02-02T13:55:07.582Z,46.10
2019-02-02T13:57:37.743Z,45.75
2019-02-02T14:00:06.020Z,45.89
2019-02-02T14:02:36.923Z,46.57
2019-02-02T14:05:04.566Z,47.34
2019-02-02T14:07:32.500Z,48.03
2019-02-02T14:12:48.551Z,46.84
2019-02-02T14:15:16.197Z,46.64
2019-02-02T14:17:47.911Z,47.83
2019-02-02T14:20:15.863Z,47.19
2019-02-02T14:22:43.462Z,47.42
2019-02-02T14:25:13.251Z,47.66
2019-02-02T14:27:43.815Z,48.30
2019-02-02T14:30:13.208Z,48.33
2019-02-02T14:32:41.551Z,48.79
2019-02-02T14:35:09.290Z,49.01
2019-02-02T14:37:38.529Z,48.53
2019-02-02T14:40:05.516Z,48.86
2019-02-02T14:42:35.650Z,49.09
2019-02-02T14:45:17.172Z,49.27
2019-02-02T14:47:44.371Z,49.35
2019-02-02T14:50:13.659Z,48.18
2019-02-02T14:52:43.258Z,48.84
2019-02-02T14:55:10.201Z,48.50
2019-02-02T14:57:38.844Z,48.21
2019-02-02T15:00:06.006Z,47.86
2019-02-02T15:02:41.553Z,47.84
2019-02-02T15:05:07.855Z,48.55
2019-02-02T15:07:35.606Z,48.12
2019-02-02T15:10:06.911Z,48.70
2019-02-02T15:12:37.218Z,48.22
2019-02-02T15:15:07.610Z,48.38
2019-02-02T15:17:38.351Z,48.39
2019-02-02T15:20:11.786Z,48.87
2019-02-02T15:22:38.821Z,48.97
2019-02-02T15:25:12.236Z,48.96
2019-02-02T15:27:38.797Z,49.20
2019-02-02T15:30:07.958Z,49.14
2019-02-02T15:32:34.884Z,49.38
2019-02-02T15:35:02.799Z,49.29
2019-02-02T15:40:17.991Z,49.60
2019-02-02T15:42:50.734Z,49.72
2019-02-02T15:45:17.184Z,49.95
2019-02-02T15:47:44.117Z,49.99
2019-02-02T15:50:11.143Z,50.36
2019-02-02T15:52:40.370Z,50.38
2019-02-02T15:55:10.167Z,50.51
2019-02-02T15:57:39.968Z,50.75
2019-02-02T16:00:06.639Z,50.82
2019-02-02T16:02:39.552Z,50.70
2019-02-02T16:05:06.383Z,50.73
2019-02-02T16:07:35.952Z,50.86
2019-02-02T16:10:06.211Z,50.58
2019-02-02T16:12:34.679Z,50.58
2019-02-02T16:15:01.430Z,50.54
2019-02-02T16:17:31.473Z,51.13
2019-02-02T16:19:58.459Z,50.96
2019-02-02T16:22:25.228Z,51.09
2019-02-02T16:24:52.264Z,51.27
2019-02-02T16:27:35.521Z,51.25
2019-02-02T16:30:10.019Z,51.44
2019-02-02T16:32:37.381Z,51.25
2019-02-02T16:35:05.031Z,51.07
2019-02-02T16:37:36.326Z,51.16
2019-02-02T16:40:04.062Z,51.53
2019-02-02T16:42:31.270Z,51.93
2019-02-02T16:45:00.822Z,52.08
2019-02-02T16:47:30.768Z,52.13
2019-02-02T16:49:59.460Z,52.22
2019-02-02T16:52:32.412Z,52.33
2019-02-02T16:55:02.447Z,52.74
2019-02-02T16:57:31.619Z,52.74
2019-02-02T16:59:59.264Z,53.17
2019-02-02T17:02:26.692Z,53.24
2019-02-02T17:04:55.900Z,53.63
2019-02-02T17:07:25.317Z,54.10
2019-02-02T17:09:52.397Z,54.22
2019-02-02T17:15:06.074Z,54.70
2019-02-02T17:17:49.764Z,55.08
2019-02-02T17:20:21.172Z,55.25
2019-02-02T17:22:49.324Z,55.62
2019-02-02T17:25:18.073Z,55.91
2019-02-02T17:27:45.728Z,55.79
2019-02-02T17:30:13.123Z,56.05
2019-02-02T17:32:42.582Z,56.23
2019-02-02T17:35:10.175Z,56.14
2019-02-02T17:37:39.501Z,56.19
2019-02-02T17:40:24.489Z,56.79
2019-02-02T17:42:56.105Z,57.53
2019-02-02T17:45:23.487Z,57.55
2019-02-02T17:47:51.185Z,57.84
2019-02-02T17:50:18.898Z,57.96
2019-02-02T17:52:47.297Z,57.87
2019-02-02T17:55:18.212Z,57.84
2019-02-02T17:57:45.936Z,58.09
2019-02-02T18:00:15.638Z,58.32
2019-02-02T18:05:32.870Z,58.23
2019-02-02T18:08:03.549Z,57.85
2019-02-02T18:10:31.410Z,58.02
2019-02-02T18:13:02.419Z,58.50
2019-02-02T18:15:33.392Z,59.14
2019-02-02T18:18:03.155Z,59.11
2019-02-02T18:20:30.904Z,59.09
2019-02-02T18:25:48.901Z,59.80
2019-02-02T18:31:06.650Z,59.32
2019-02-02T18:33:36.658Z,59.69
2019-02-02T18:36:05.916Z,59.64
2019-02-02T18:38:35.672Z,60.30
2019-02-02T18:41:02.646Z,60.68
2019-02-02T18:43:29.700Z,60.17
2019-02-02T18:48:44.271Z,59.79
2019-02-02T18:51:13.923Z,58.93
2019-02-02T18:53:40.971Z,59.22
2019-02-02T18:56:11.528Z,59.33
2019-02-02T18:58:38.393Z,59.47
2019-02-02T19:01:05.327Z,59.46
2019-02-02T19:03:35.960Z,59.58
2019-02-02T19:06:10.352Z,59.47
2019-02-02T19:08:38.884Z,59.62
2019-02-02T19:11:08.687Z,59.65
2019-02-02T19:13:35.313Z,59.87
2019-02-02T19:18:48.475Z,60.21
2019-02-02T19:21:19.142Z,60.72
2019-02-02T19:23:47.138Z,60.91
2019-02-02T19:26:17.043Z,61.14
2019-02-02T19:28:45.638Z,61.05
2019-02-02T19:31:16.096Z,60.92
2019-02-02T19:33:44.837Z,61.09
2019-02-02T19:36:12.972Z,61.49
2019-02-02T19:38:40.396Z,61.90
2019-02-02T19:41:10.626Z,61.75
2019-02-02T19:43:39.701Z,61.47
2019-02-02T19:46:09.231Z,61.33
2019-02-02T19:48:37.135Z,60.92
2019-02-02T19:51:05.927Z,60.57
2019-02-02T19:53:32.767Z,60.44
2019-02-02T19:56:01.839Z,60.65
2019-02-02T19:58:31.719Z,60.54
2019-02-02T20:01:03.221Z,60.29
2019-02-02T20:03:29.895Z,60.32
2019-02-02T20:05:56.537Z,60.54
2019-02-02T20:08:25.178Z,60.62
2019-02-02T20:10:53.351Z,60.32
2019-02-02T20:13:20.052Z,60.23
2019-02-02T20:15:49.379Z,60.50
2019-02-02T20:18:17.845Z,60.75
2019-02-02T20:20:44.406Z,60.66
2019-02-02T20:23:13.290Z,60.65
2019-02-02T20:25:43.781Z,60.36
2019-02-02T20:28:12.737Z,60.39
2019-02-02T20:30:39.649Z,60.61
2019-02-02T20:33:06.279Z,60.64
2019-02-02T20:35:40.915Z,61.24
2019-02-02T20:38:02.263Z,60.92
2019-02-02T20:40:29.940Z,60.89
2019-02-02T20:42:58.251Z,61.57
2019-02-02T20:45:24.966Z,61.56
2019-02-02T20:47:51.732Z,61.38
2019-02-02T20:50:19.525Z,61.39
2019-02-02T20:52:48.017Z,61.30
2019-02-02T20:55:15.874Z,60.98
2019-02-02T20:57:45.894Z,61.17
2019-02-02T21:00:14.746Z,61.08
2019-02-02T21:02:42.677Z,62.21
2019-02-02T21:05:16.305Z,62.64
2019-02-02T21:07:44.304Z,63.02
2019-02-02T21:10:11.424Z,63.29
2019-02-02T21:12:39.003Z,63.94
2019-02-02T21:15:07.070Z,64.80
2019-02-02T21:17:34.082Z,64.03
2019-02-02T21:20:00.764Z,64.32
2019-02-02T21:22:30.368Z,64.05
2019-02-02T21:24:58.090Z,63.98
2019-02-02T21:27:25.291Z,64.54
2019-02-02T21:29:55.789Z,64.34
2019-02-02T21:32:23.646Z,64.05
2019-02-02T21:34:51.329Z,63.55
2019-02-02T21:37:18.421Z,63.40
2019-02-02T21:39:45.919Z,63.76
2019-02-02T21:42:13.341Z,63.92
2019-02-02T21:44:45.835Z,65.38
2019-02-02T21:47:16.750Z,65.95
2019-02-02T21:52:36.246Z,65.09
2019-02-02T21:55:02.904Z,64.66
2019-02-02T21:57:30.046Z,65.68
2019-02-02T21:59:57.243Z,65.98
2019-02-02T22:02:26.161Z,65.30
2019-02-02T22:05:03.778Z,64.95
2019-02-02T22:07:32.261Z,64.66
2019-02-02T22:10:02.114Z,64.26
2019-02-02T22:12:30.346Z,63.67
2019-02-02T22:14:57.233Z,63.09
2019-02-02T22:17:27.936Z,63.70
2019-02-02T22:19:54.626Z,63.99
2019-02-02T22:22:21.841Z,63.57
2019-02-02T22:24:51.190Z,63.58
2019-02-02T22:27:17.613Z,63.62
2019-02-02T22:29:45.214Z,63.87
2019-02-02T22:32:12.696Z,63.69
2019-02-02T22:34:40.466Z,63.92
2019-02-02T22:37:07.660Z,63.34
2019-02-02T22:39:38.300Z,61.96
2019-02-02T22:42:19.588Z,62.38
2019-02-02T22:47:49.583Z,63.13
2019-02-02T22:50:16.879Z,63.11
2019-02-02T22:52:44.188Z,62.54
2019-02-02T22:55:13.316Z,63.25
2019-02-02T22:57:42.388Z,63.06
2019-02-02T23:00:09.381Z,63.40
2019-02-02T23:02:36.892Z,63.37
2019-02-02T23:05:04.071Z,64.10
2019-02-02T23:07:31.917Z,63.70
2019-02-02T23:09:58.867Z,63.60
2019-02-02T23:12:26.312Z,62.71
2019-02-02T23:14:53.397Z,63.06
2019-02-02T23:17:20.387Z,62.91
2019-02-02T23:19:48.228Z,63.00
2019-02-02T23:22:15.634Z,62.30
2019-02-02T23:24:42.864Z,62.70
2019-02-02T23:27:09.729Z,62.38
2019-02-02T23:29:37.328Z,62.40
2019-02-02T23:32:04.627Z,62.27
2019-02-02T23:34:31.536Z,62.50
2019-02-02T23:36:58.300Z,62.88
2019-02-02T23:39:26.125Z,63.06
2019-02-02T23:41:52.904Z,62.45
2019-02-02T23:44:20.704Z,62.73
2019-02-02T23:46:49.254Z,62.66
2019-02-02T23:49:17.169Z,62.69
2019-02-02T23:51:44.964Z,63.25
2019-02-02T23:54:12.981Z,63.22
2019-02-02T23:56:40.192Z,62.96
